createdAt,value
2022-10-01T00:01:15.110Z,6.00
2022-10-01T00:03:42.825Z,6.00
2022-10-01T00:06:17.606Z,6.00
2022-10-01T00:08:48.996Z,6.10
2022-10-01T00:11:22.535Z,6.00
2022-10-01T00:13:50.665Z,5.80
2022-10-01T00:16:23.659Z,5.90
2022-10-01T00:18:55.693Z,5.90
2022-10-01T00:21:29.109Z,5.90
2022-10-01T00:23:56.845Z,5.90
2022-10-01T00:26:28.715Z,6.00
2022-10-01T00:29:01.567Z,6.00
2022-10-01T00:31:28.728Z,6.00
2022-10-01T00:33:58.308Z,6.00
2022-10-01T00:36:25.685Z,6.00
2022-10-01T00:38:52.690Z,6.00
2022-10-01T00:41:19.785Z,6.00
2022-10-01T00:43:50.632Z,5.80
2022-10-01T00:46:26.490Z,5.90
2022-10-01T00:49:11.398Z,6.00
2022-10-01T00:51:43.110Z,6.10
2022-10-01T00:54:13.279Z,6.10
2022-10-01T00:56:41.245Z,6.00
2022-10-01T00:59:08.097Z,6.00
2022-10-01T01:01:37.488Z,6.00
2022-10-01T01:04:04.920Z,6.00
2022-10-01T01:06:31.642Z,6.00
2022-10-01T01:08:58.469Z,5.90
2022-10-01T01:11:57.826Z,6.00
2022-10-01T01:14:51.849Z,6.10
2022-10-01T01:17:25.722Z,6.00
2022-10-01T01:20:10.844Z,6.00
2022-10-01T01:22:44.533Z,6.10
2022-10-01T01:25:19.567Z,6.00
2022-10-01T01:28:10.550Z,6.00
2022-10-01T01:30:41.158Z,6.00
2022-10-01T01:33:15.719Z,6.10
2022-10-01T01:35:49.446Z,6.00
2022-10-01T01:38:28.035Z,5.90
2022-10-01T01:40:58.740Z,6.00
2022-10-01T01:43:33.287Z,6.00
2022-10-01T01:46:02.385Z,5.90
2022-10-01T01:48:31.013Z,6.00
2022-10-01T01:51:04.630Z,6.10
2022-10-01T01:53:32.198Z,6.10
2022-10-01T01:56:00.328Z,6.10
2022-10-01T01:58:33.554Z,6.00
2022-10-01T02:01:01.661Z,6.00
2022-10-01T02:03:30.623Z,6.10
2022-10-01T02:06:33.263Z,6.10
2022-10-01T02:09:11.401Z,6.10
2022-10-01T02:11:57.227Z,5.90
2022-10-01T02:14:45.053Z,6.00
2022-10-01T02:17:28.032Z,6.20
2022-10-01T02:20:01.815Z,6.00
2022-10-01T02:22:47.136Z,6.10
2022-10-01T02:25:17.361Z,6.10
2022-10-01T02:27:52.947Z,6.00
2022-10-01T02:30:19.779Z,6.20
2022-10-01T02:32:49.966Z,6.40
2022-10-01T02:35:18.781Z,6.30
2022-10-01T02:37:50.349Z,6.40
2022-10-01T02:40:22.326Z,6.40
2022-10-01T02:42:53.640Z,6.50
2022-10-01T02:45:22.856Z,6.50
2022-10-01T02:48:06.149Z,6.30
2022-10-01T02:50:42.590Z,6.30
2022-10-01T02:53:16.955Z,6.40
2022-10-01T02:55:46.458Z,6.20
2022-10-01T02:58:13.619Z,6.20
2022-10-01T03:00:40.539Z,6.10
2022-10-01T03:03:07.378Z,6.10
2022-10-01T03:05:34.107Z,6.20
2022-10-01T03:08:01.021Z,6.40
2022-10-01T03:10:27.740Z,6.40
2022-10-01T03:12:54.470Z,6.40
2022-10-01T03:15:21.235Z,6.60
2022-10-01T03:17:55.192Z,6.60
2022-10-01T03:20:22.656Z,6.80
2022-10-01T03:22:49.643Z,6.90
2022-10-01T03:25:17.173Z,7.00
2022-10-01T03:27:44.026Z,7.00
2022-10-01T03:30:11.414Z,7.00
2022-10-01T03:32:38.301Z,7.20
2022-10-01T03:35:05.384Z,7.30
2022-10-01T03:37:32.114Z,7.40
2022-10-01T03:39:58.846Z,7.40
2022-10-01T03:42:25.547Z,7.40
2022-10-01T03:44:52.942Z,7.50
2022-10-01T03:47:19.793Z,7.40
2022-10-01T03:49:46.531Z,7.40
2022-10-01T03:52:13.261Z,7.50
2022-10-01T03:54:40.015Z,7.50
2022-10-01T03:57:06.801Z,7.50
2022-10-01T03:59:33.602Z,7.50
2022-10-01T04:02:00.428Z,7.60
2022-10-01T04:04:28.958Z,7.60
2022-10-01T04:06:55.826Z,7.80
2022-10-01T04:09:22.593Z,7.70
2022-10-01T04:11:49.310Z,7.80
2022-10-01T04:14:16.019Z,7.90
2022-10-01T04:16:43.411Z,7.80
2022-10-01T04:19:10.151Z,7.80
2022-10-01T04:21:39.049Z,7.90
2022-10-01T04:24:06.003Z,7.90
2022-10-01T04:26:32.772Z,7.90
2022-10-01T04:28:59.544Z,7.90
2022-10-01T04:31:26.515Z,7.90
2022-10-01T04:33:55.176Z,8.00
2022-10-01T04:36:22.941Z,8.00
2022-10-01T04:39:01.821Z,8.00
2022-10-01T04:41:33.177Z,8.10
2022-10-01T04:44:00.805Z,8.10
2022-10-01T04:46:30.206Z,8.10
2022-10-01T04:48:57.224Z,8.10
2022-10-01T04:51:24.313Z,8.20
2022-10-01T04:53:51.010Z,8.10
2022-10-01T04:56:18.050Z,8.20
2022-10-01T04:58:44.769Z,8.20
2022-10-01T05:01:11.476Z,8.20
2022-10-01T05:03:38.285Z,8.20
2022-10-01T05:06:05.103Z,8.20
2022-10-01T05:08:31.854Z,8.10
2022-10-01T05:11:03.105Z,8.10
2022-10-01T05:13:29.842Z,8.10
2022-10-01T05:15:57.095Z,8.20
2022-10-01T05:18:24.164Z,8.20
2022-10-01T05:20:50.837Z,8.30
2022-10-01T05:23:17.519Z,8.30
2022-10-01T05:25:45.099Z,8.30
2022-10-01T05:28:11.854Z,8.40
2022-10-01T05:30:38.618Z,8.40
2022-10-01T05:33:05.678Z,8.50
2022-10-01T05:35:32.643Z,8.50
2022-10-01T05:38:01.148Z,8.50
2022-10-01T05:40:28.927Z,8.50
2022-10-01T05:43:00.144Z,8.60
2022-10-01T05:45:28.152Z,8.60
2022-10-01T05:48:03.242Z,8.70
2022-10-01T05:50:31.796Z,8.80
2022-10-01T05:52:59.471Z,8.80
2022-10-01T05:55:27.382Z,8.70
2022-10-01T05:57:59.544Z,8.70
2022-10-01T06:00:29.069Z,8.70
2022-10-01T06:02:57.915Z,8.70
2022-10-01T06:05:25.778Z,8.70
2022-10-01T06:07:53.550Z,8.70
2022-10-01T06:10:21.958Z,8.50
2022-10-01T06:12:48.987Z,8.50
2022-10-01T06:15:16.682Z,8.40
2022-10-01T06:17:45.223Z,8.30
2022-10-01T06:20:17.140Z,8.20
2022-10-01T06:22:44.827Z,8.30
2022-10-01T06:25:12.621Z,8.40
2022-10-01T06:27:39.808Z,8.40
2022-10-01T06:30:07.572Z,8.40
2022-10-01T06:32:35.288Z,8.30
2022-10-01T06:35:02.923Z,8.40
2022-10-01T06:37:29.823Z,8.40
2022-10-01T06:39:56.612Z,8.30
2022-10-01T06:42:23.539Z,8.20
2022-10-01T06:44:50.260Z,8.30
2022-10-01T06:47:17.035Z,8.30
2022-10-01T06:49:47.474Z,8.30
2022-10-01T06:52:33.071Z,8.30
2022-10-01T06:55:01.435Z,8.30
2022-10-01T06:57:29.002Z,8.40
2022-10-01T06:59:56.085Z,8.50
2022-10-01T07:02:27.983Z,8.50
2022-10-01T07:05:01.656Z,8.60
2022-10-01T07:07:33.691Z,8.60
2022-10-01T07:10:00.578Z,8.60
2022-10-01T07:12:27.835Z,8.60
2022-10-01T07:14:54.854Z,8.60
2022-10-01T07:17:22.393Z,8.60
2022-10-01T07:19:49.466Z,8.60
2022-10-01T07:22:17.987Z,8.60
2022-10-01T07:24:45.727Z,8.70
2022-10-01T07:27:13.827Z,8.60
2022-10-01T07:29:41.830Z,8.60
2022-10-01T07:32:10.306Z,8.70
2022-10-01T07:34:40.298Z,8.70
2022-10-01T07:37:08.483Z,8.80
2022-10-01T07:39:36.118Z,8.80
2022-10-01T07:42:03.807Z,8.90
2022-10-01T07:44:30.540Z,8.90
2022-10-01T07:46:57.368Z,8.90
2022-10-01T07:49:25.241Z,8.80
2022-10-01T07:51:54.391Z,8.80
2022-10-01T07:54:24.071Z,8.80
2022-10-01T07:56:55.643Z,8.80
2022-10-01T07:59:23.199Z,8.80
2022-10-01T08:01:51.748Z,8.80
2022-10-01T08:04:38.360Z,8.80
2022-10-01T08:07:05.970Z,8.90
2022-10-01T08:09:32.714Z,8.90
2022-10-01T08:11:59.411Z,8.80
2022-10-01T08:14:26.276Z,8.90
2022-10-01T08:16:55.732Z,9.00
2022-10-01T08:19:22.797Z,9.00
2022-10-01T08:21:49.514Z,9.00
2022-10-01T08:24:16.256Z,9.10
2022-10-01T08:26:42.981Z,8.90
2022-10-01T08:29:12.588Z,9.00
2022-10-01T08:31:43.029Z,9.10
2022-10-01T08:34:09.899Z,9.10
2022-10-01T08:36:37.805Z,9.10
2022-10-01T08:39:04.712Z,9.10
2022-10-01T08:41:40.838Z,9.20
2022-10-01T08:44:13.959Z,9.20
2022-10-01T08:46:41.631Z,9.10
2022-10-01T08:49:23.326Z,9.20
2022-10-01T08:51:59.848Z,9.30
2022-10-01T08:54:42.367Z,9.30
2022-10-01T08:57:14.089Z,9.40
2022-10-01T08:59:51.953Z,9.40
2022-10-01T09:02:33.985Z,9.50
2022-10-01T09:05:06.761Z,9.50
2022-10-01T09:07:52.036Z,9.50
2022-10-01T09:10:37.408Z,9.50
2022-10-01T09:13:43.363Z,9.50
2022-10-01T09:16:39.788Z,9.60
2022-10-01T09:19:25.269Z,9.50
2022-10-01T09:22:03.242Z,9.60
2022-10-01T09:24:50.598Z,9.70
2022-10-01T09:27:23.111Z,9.60
2022-10-01T09:29:58.283Z,9.70
2022-10-01T09:32:31.061Z,9.80
2022-10-01T09:35:04.508Z,9.80
2022-10-01T09:38:13.429Z,9.80
2022-10-01T09:40:48.650Z,9.80
2022-10-01T09:43:19.882Z,9.70
2022-10-01T09:45:47.372Z,9.70
2022-10-01T09:48:29.373Z,9.70
2022-10-01T09:51:10.792Z,9.80
2022-10-01T09:53:43.870Z,9.80
2022-10-01T09:56:23.552Z,9.80
2022-10-01T09:58:55.050Z,9.80
2022-10-01T10:01:30.314Z,9.80
2022-10-01T10:03:58.243Z,9.90
2022-10-01T10:06:28.455Z,9.90
2022-10-01T10:08:58.265Z,9.90
2022-10-01T10:11:28.597Z,10.00
2022-10-01T10:14:01.332Z,9.90
2022-10-01T10:16:32.504Z,9.80
2022-10-01T10:19:17.772Z,9.90
2022-10-01T10:21:57.965Z,10.00
2022-10-01T10:24:34.034Z,10.10
2022-10-01T10:27:03.487Z,10.10
2022-10-01T10:29:35.503Z,10.00
2022-10-01T10:32:22.031Z,10.00
2022-10-01T10:34:48.978Z,9.90
2022-10-01T10:37:25.894Z,9.90
2022-10-01T10:39:53.594Z,9.90
2022-10-01T10:42:22.580Z,9.90
2022-10-01T10:44:51.600Z,10.00
2022-10-01T10:47:20.728Z,10.00
2022-10-01T10:50:03.607Z,10.00
2022-10-01T10:52:33.185Z,10.00
2022-10-01T10:55:01.645Z,10.00
2022-10-01T10:57:34.264Z,10.10
2022-10-01T11:00:13.328Z,10.10
2022-10-01T11:02:48.242Z,10.20
2022-10-01T11:05:21.752Z,10.20
2022-10-01T11:07:51.103Z,10.20
2022-10-01T11:10:28.823Z,10.30
2022-10-01T11:13:32.251Z,10.30
2022-10-01T11:16:37.263Z,10.30
2022-10-01T11:19:45.142Z,10.30
2022-10-01T11:22:18.525Z,10.40
2022-10-01T11:25:05.583Z,10.40
2022-10-01T11:27:38.398Z,10.30
2022-10-01T11:30:26.454Z,10.40
2022-10-01T11:33:15.436Z,10.40
2022-10-01T11:35:49.575Z,10.50
2022-10-01T11:38:36.196Z,10.40
2022-10-01T11:41:21.474Z,10.40
2022-10-01T11:44:18.160Z,10.50
2022-10-01T11:47:20.591Z,10.60
2022-10-01T11:49:56.557Z,10.70
2022-10-01T11:52:35.238Z,10.70
2022-10-01T11:55:35.418Z,10.60
2022-10-01T11:58:26.899Z,10.60
2022-10-01T12:01:07.232Z,10.70
2022-10-01T12:04:18.374Z,10.80
2022-10-01T12:06:54.362Z,10.80
2022-10-01T12:09:39.751Z,10.90
2022-10-01T12:12:17.196Z,10.90
2022-10-01T12:15:15.196Z,10.90
2022-10-01T12:17:48.340Z,10.90
2022-10-01T12:20:37.891Z,10.90
2022-10-01T12:23:07.906Z,10.90
2022-10-01T12:25:46.890Z,10.90
2022-10-01T12:28:20.681Z,10.90
2022-10-01T12:31:00.506Z,10.90
2022-10-01T12:33:42.829Z,11.00
2022-10-01T12:36:46.882Z,11.00
2022-10-01T12:39:16.670Z,11.00
2022-10-01T12:41:56.236Z,11.10
2022-10-01T12:44:47.081Z,11.20
2022-10-01T12:47:28.996Z,11.30
2022-10-01T12:50:06.709Z,11.40
2022-10-01T12:53:02.701Z,11.40
2022-10-01T12:55:41.517Z,11.40
2022-10-01T12:58:26.191Z,11.40
2022-10-01T13:01:21.902Z,11.40
2022-10-01T13:04:28.329Z,11.40
2022-10-01T13:07:09.733Z,11.50
2022-10-01T13:10:12.130Z,11.60
2022-10-01T13:13:18.335Z,11.60
2022-10-01T13:15:49.428Z,11.70
2022-10-01T13:18:28.047Z,11.70
2022-10-01T13:21:19.712Z,11.80
2022-10-01T13:24:09.739Z,11.80
2022-10-01T13:26:58.440Z,11.80
2022-10-01T13:29:55.724Z,11.80
2022-10-01T13:32:25.917Z,11.80
2022-10-01T13:34:53.759Z,11.90
2022-10-01T13:37:34.187Z,11.90
2022-10-01T13:40:01.694Z,11.90
2022-10-01T13:42:46.989Z,11.90
2022-10-01T13:45:45.147Z,11.80
2022-10-01T13:48:20.898Z,11.70
2022-10-01T13:51:05.131Z,11.70
2022-10-01T13:53:36.663Z,11.60
2022-10-01T13:56:04.609Z,11.70
2022-10-01T13:58:44.558Z,11.60
2022-10-01T14:01:23.594Z,11.60
2022-10-01T14:04:19.007Z,11.70
2022-10-01T14:07:07.328Z,11.70
2022-10-01T14:09:36.966Z,11.60
2022-10-01T14:12:33.862Z,11.70
2022-10-01T14:15:30.591Z,11.50
2022-10-01T14:18:03.033Z,11.60
2022-10-01T14:20:36.079Z,11.60
2022-10-01T14:23:36.575Z,11.60
2022-10-01T14:26:21.374Z,11.60
2022-10-01T14:29:07.090Z,11.50
2022-10-01T14:32:09.989Z,11.50
2022-10-01T14:35:01.627Z,11.60
2022-10-01T14:37:29.262Z,11.60
2022-10-01T14:40:22.674Z,11.60
2022-10-01T14:43:03.740Z,11.60
2022-10-01T14:45:30.699Z,11.60
2022-10-01T14:48:06.451Z,11.60
2022-10-01T14:50:35.973Z,11.60
2022-10-01T14:53:03.622Z,11.60
2022-10-01T14:55:31.279Z,11.60
2022-10-01T14:57:58.513Z,11.60
2022-10-01T15:00:28.778Z,11.50
2022-10-01T15:03:15.158Z,11.60
2022-10-01T15:05:42.843Z,11.60
2022-10-01T15:08:45.745Z,11.50
2022-10-01T15:11:17.591Z,11.60
2022-10-01T15:13:47.780Z,11.60
2022-10-01T15:16:23.378Z,11.60
2022-10-01T15:18:56.517Z,11.60
2022-10-01T15:21:35.320Z,11.60
2022-10-01T15:24:04.357Z,11.60
2022-10-01T15:26:32.674Z,11.60
2022-10-01T15:29:05.778Z,11.70
2022-10-01T15:31:34.008Z,11.70
2022-10-01T15:34:03.574Z,11.70
2022-10-01T15:36:31.402Z,11.70
2022-10-01T15:38:59.049Z,11.70
2022-10-01T15:41:32.319Z,11.70
2022-10-01T15:44:03.146Z,11.70
2022-10-01T15:46:33.940Z,11.70
2022-10-01T15:49:19.247Z,11.70
2022-10-01T15:52:17.484Z,11.60
2022-10-01T15:54:45.469Z,11.60
2022-10-01T15:57:21.819Z,11.60
2022-10-01T15:59:51.621Z,11.60
2022-10-01T16:02:22.195Z,11.50
2022-10-01T16:04:52.794Z,11.60
2022-10-01T16:07:29.419Z,11.40
2022-10-01T16:09:58.637Z,11.50
2022-10-01T16:12:27.965Z,11.50
2022-10-01T16:15:02.922Z,11.50
2022-10-01T16:17:31.355Z,11.50
2022-10-01T16:20:44.756Z,11.50
2022-10-01T16:23:36.464Z,11.50
2022-10-01T16:26:05.777Z,11.60
2022-10-01T16:28:34.580Z,11.50
2022-10-01T16:31:04.028Z,11.60
2022-10-01T16:33:30.824Z,11.50
2022-10-01T16:36:10.950Z,11.50
2022-10-01T16:38:37.798Z,11.50
2022-10-01T16:41:05.474Z,11.40
2022-10-01T16:43:36.646Z,11.50
2022-10-01T16:46:03.409Z,11.40
2022-10-01T16:48:30.181Z,11.40
2022-10-01T16:50:59.170Z,11.30
2022-10-01T16:53:26.680Z,11.30
2022-10-01T16:55:55.901Z,11.30
2022-10-01T16:58:22.767Z,11.20
2022-10-01T17:00:49.689Z,11.20
2022-10-01T17:03:24.961Z,11.10
2022-10-01T17:05:51.821Z,11.20
2022-10-01T17:08:18.503Z,11.20
2022-10-01T17:10:53.629Z,11.10
2022-10-01T17:13:24.866Z,11.10
2022-10-01T17:15:51.970Z,11.10
2022-10-01T17:18:19.236Z,11.10
2022-10-01T17:20:46.091Z,11.20
2022-10-01T17:23:14.923Z,11.20
2022-10-01T17:25:42.430Z,11.20
2022-10-01T17:28:13.941Z,11.20
2022-10-01T17:30:41.626Z,11.20
2022-10-01T17:33:09.881Z,11.20
2022-10-01T17:35:42.523Z,11.10
2022-10-01T17:38:10.024Z,11.20
2022-10-01T17:40:40.581Z,11.30
2022-10-01T17:43:07.672Z,11.20
2022-10-01T17:45:34.467Z,11.20
2022-10-01T17:48:01.704Z,11.30
2022-10-01T17:50:28.520Z,11.30
2022-10-01T17:52:55.872Z,11.40
2022-10-01T17:55:23.821Z,11.40
2022-10-01T17:57:51.233Z,11.40
2022-10-01T18:00:19.016Z,11.40
2022-10-01T18:02:48.791Z,11.40
2022-10-01T18:05:17.129Z,11.40
2022-10-01T18:07:43.880Z,11.50
2022-10-01T18:10:12.755Z,11.50
2022-10-01T18:12:40.007Z,11.50
2022-10-01T18:15:07.441Z,11.50
2022-10-01T18:17:36.646Z,11.60
2022-10-01T18:20:06.169Z,11.60
2022-10-01T18:22:33.600Z,11.60
2022-10-01T18:25:00.436Z,11.50
2022-10-01T18:27:27.110Z,11.60
2022-10-01T18:29:53.896Z,11.60
2022-10-01T18:32:25.492Z,11.70
2022-10-01T18:34:58.776Z,11.60
2022-10-01T18:37:39.164Z,11.60
2022-10-01T18:40:09.017Z,11.60
2022-10-01T18:42:57.753Z,11.50
2022-10-01T18:45:36.897Z,11.50
2022-10-01T18:48:35.676Z,11.60
2022-10-01T18:51:51.918Z,11.50
2022-10-01T18:54:43.400Z,11.50
2022-10-01T18:57:20.759Z,11.40
2022-10-01T19:00:25.560Z,11.50
2022-10-01T19:03:21.578Z,11.40
2022-10-01T19:06:09.335Z,11.50
2022-10-01T19:08:55.067Z,11.60
2022-10-01T19:12:00.274Z,11.60
2022-10-01T19:14:37.752Z,11.60
2022-10-01T19:17:25.907Z,11.60
2022-10-01T19:20:20.985Z,11.70
2022-10-01T19:23:10.514Z,11.70
2022-10-01T19:25:50.378Z,11.60
2022-10-01T19:28:38.916Z,11.60
2022-10-01T19:31:22.376Z,11.60
2022-10-01T19:33:56.192Z,11.60
2022-10-01T19:36:34.500Z,11.60
2022-10-01T19:39:08.870Z,11.50
2022-10-01T19:41:53.225Z,11.50
2022-10-01T19:44:51.883Z,11.50
2022-10-01T19:47:31.823Z,11.50
2022-10-01T19:50:06.379Z,11.60
2022-10-01T19:52:38.179Z,11.60
2022-10-01T19:55:13.927Z,11.70
2022-10-01T19:57:43.766Z,11.70
2022-10-01T20:00:21.765Z,11.70
2022-10-01T20:03:00.596Z,11.70
2022-10-01T20:05:30.177Z,11.60
2022-10-01T20:08:06.320Z,11.60
2022-10-01T20:10:55.110Z,11.60
2022-10-01T20:13:28.391Z,11.70
2022-10-01T20:16:18.455Z,11.70
2022-10-01T20:19:20.289Z,11.70
2022-10-01T20:22:07.186Z,11.70
2022-10-01T20:24:54.927Z,11.70
2022-10-01T20:28:05.994Z,11.70
2022-10-01T20:30:48.209Z,11.60
2022-10-01T20:33:26.614Z,11.60
2022-10-01T20:36:16.651Z,11.60
2022-10-01T20:39:04.162Z,11.60
2022-10-01T20:41:44.128Z,11.70
2022-10-01T20:44:15.818Z,11.60
2022-10-01T20:46:48.003Z,11.50
2022-10-01T20:49:18.131Z,11.50
2022-10-01T20:51:53.687Z,11.50
2022-10-01T20:54:26.236Z,11.40
2022-10-01T20:57:05.741Z,11.40
2022-10-01T20:59:44.137Z,11.50
2022-10-01T21:02:26.424Z,11.50
2022-10-01T21:05:05.295Z,11.50
2022-10-01T21:07:43.606Z,11.50
2022-10-01T21:10:39.630Z,11.50
2022-10-01T21:13:26.380Z,11.50
2022-10-01T21:16:11.845Z,11.50
2022-10-01T21:18:58.349Z,11.50
2022-10-01T21:21:43.159Z,11.50
2022-10-01T21:24:30.896Z,11.50
2022-10-01T21:27:24.028Z,11.60
2022-10-01T21:30:11.430Z,11.50
2022-10-01T21:33:05.804Z,11.60
2022-10-01T21:35:52.629Z,11.60
2022-10-01T21:38:27.980Z,11.60
2022-10-01T21:41:29.103Z,11.60
2022-10-01T21:44:13.182Z,11.70
2022-10-01T21:47:00.000Z,11.60
2022-10-01T21:49:31.283Z,11.70
2022-10-01T21:52:31.833Z,11.70
2022-10-01T21:55:19.791Z,11.70
2022-10-01T21:58:18.115Z,11.70
2022-10-01T22:00:57.950Z,11.70
2022-10-01T22:03:38.261Z,11.60
2022-10-01T22:06:32.607Z,11.60
2022-10-01T22:09:11.796Z,11.60
2022-10-01T22:11:45.686Z,11.60
2022-10-01T22:14:21.175Z,11.60
2022-10-01T22:17:15.834Z,11.60
2022-10-01T22:19:56.851Z,11.60
2022-10-01T22:22:30.026Z,11.50
2022-10-01T22:24:59.764Z,11.50
2022-10-01T22:27:50.349Z,11.40
2022-10-01T22:30:20.545Z,11.40
2022-10-01T22:32:52.647Z,11.40
2022-10-01T22:35:50.133Z,11.50
2022-10-01T22:39:15.422Z,11.40
2022-10-01T22:41:57.385Z,11.40
2022-10-01T22:44:24.233Z,11.40
2022-10-01T22:47:23.365Z,11.40
2022-10-01T22:50:17.435Z,11.50
2022-10-01T22:53:03.508Z,11.50
2022-10-01T22:55:53.223Z,11.40
2022-10-01T22:58:43.499Z,11.40
2022-10-01T23:01:10.209Z,11.40
2022-10-01T23:04:04.835Z,11.40
2022-10-01T23:07:00.342Z,11.40
2022-10-01T23:09:36.239Z,11.40
2022-10-01T23:12:14.705Z,11.40
2022-10-01T23:15:06.802Z,11.30
2022-10-01T23:17:57.801Z,11.30
2022-10-01T23:20:32.113Z,11.40
2022-10-01T23:23:19.850Z,11.40
2022-10-01T23:25:58.448Z,11.40
2022-10-01T23:28:51.099Z,11.30
2022-10-01T23:31:43.900Z,11.40
2022-10-01T23:34:19.140Z,11.40
2022-10-01T23:36:56.674Z,11.40
2022-10-01T23:39:44.312Z,11.40
2022-10-01T23:42:17.677Z,11.40
2022-10-01T23:44:51.793Z,11.30
2022-10-01T23:47:27.232Z,11.30
2022-10-01T23:49:55.958Z,11.20
2022-10-01T23:52:38.732Z,11.20
2022-10-01T23:55:33.729Z,11.20
2022-10-01T23:58:03.550Z,11.10
